Meyers Chuck, Alaska
Current Conditions -  °F | °C
As of 1:53 AM on Monday 20 Oct 2014 (Local Time) from PAKW Reporting Station
Moderate Rain Moderate Rain  
Wind Chill: 47°   Ceiling: 5500
Heat Index: 47°   Visibility: 5mi
Dew Point: 47°   Wind: 3mph
Humidity: 100%   Direction: 360°N
Pressure: 29.22"   Gusts: NA
Location:  55.74°N, 132.26°W
Report Text: PAKW 200953Z AUTO 36003KT 5SM RA BR FEW028 OVC055 08/08 A2922 RMK AO2 SLP894 P0004 T00830083 TSNO
Loading
Personal Weather Stations






























Interactive Weather Map
Tropical Storm Tracking
New forecast layout! Learn more

10-Day Weather Forecast

Advertisements
Track Severe Weather on mobile